Kankakee, Illinois
Current Conditions -  °F | °C
As of 4:35 PM on Monday 24 Nov 2014 (Local Time) from KIKK Reporting Station
Overcast Overcast  
Wind Chill: -8°   Ceiling: 1300
Heat Index:   Visibility: 7mi
Dew Point: -2°   Wind: 24mph
Humidity: 90%   Direction: 250°WSW
Pressure: 29.68"   Gusts: 30mph
Location:  41.12°N, 87.86°W
Report Text: KIKK 242235Z AUTO 25021G26KT 7SM OVC013 00/M02 A2968 RMK AO2 T10031018
Loading
Personal Weather Stations






























Interactive Weather Map New forecast layout! Learn more

10-Day Weather Forecast

Advertisements
Track Severe Weather on mobile